createdAt,value
2022-12-29T00:01:40.729Z,12.65
2022-12-29T00:04:12.921Z,12.98
2022-12-29T00:06:43.432Z,12.38
2022-12-29T00:09:12.963Z,13.48
2022-12-29T00:11:39.716Z,11.93
2022-12-29T00:14:26.349Z,13.15
2022-12-29T00:16:53.236Z,11.75
2022-12-29T00:19:38.264Z,12.00
2022-12-29T00:22:24.134Z,10.48
2022-12-29T00:27:49.246Z,10.25
2022-12-29T00:30:37.042Z,12.43
2022-12-29T00:33:33.420Z,9.82
2022-12-29T00:36:33.368Z,10.63
2022-12-29T00:39:30.385Z,10.63
2022-12-29T00:42:15.454Z,10.00
2022-12-29T00:44:42.134Z,6.97
2022-12-29T00:47:08.779Z,9.55
2022-12-29T00:49:35.589Z,9.52
2022-12-29T00:52:07.834Z,9.13
2022-12-29T00:54:36.739Z,10.43
2022-12-29T00:57:04.638Z,8.75
2022-12-29T00:59:31.389Z,8.93
2022-12-29T01:01:58.518Z,8.73
2022-12-29T01:04:26.991Z,7.75
2022-12-29T01:06:53.607Z,7.10
2022-12-29T01:09:40.009Z,8.40
2022-12-29T01:12:08.019Z,6.88
2022-12-29T01:14:34.676Z,7.28
2022-12-29T01:17:01.355Z,7.85
2022-12-29T01:19:28.437Z,7.85
2022-12-29T01:21:55.079Z,6.88
2022-12-29T01:24:22.301Z,7.30
2022-12-29T01:26:49.745Z,8.40
2022-12-29T01:29:16.784Z,7.28
2022-12-29T01:31:43.832Z,7.85
2022-12-29T01:34:10.624Z,6.90
2022-12-29T01:36:37.315Z,6.78
2022-12-29T01:39:04.124Z,7.18
2022-12-29T01:41:30.878Z,7.50
2022-12-29T01:44:00.266Z,6.45
2022-12-29T01:46:48.184Z,5.72
2022-12-29T01:49:19.513Z,7.03
2022-12-29T01:51:58.188Z,6.85
2022-12-29T01:54:28.950Z,7.20
2022-12-29T01:56:58.899Z,7.13
2022-12-29T01:59:29.435Z,7.43
2022-12-29T02:01:56.305Z,7.05
2022-12-29T02:04:24.999Z,7.53
2022-12-29T02:06:57.295Z,7.63
2022-12-29T02:09:25.002Z,7.55
2022-12-29T02:11:51.962Z,6.57
2022-12-29T02:14:18.708Z,7.40
2022-12-29T02:17:03.601Z,6.97
2022-12-29T02:19:52.171Z,4.77
2022-12-29T02:22:33.971Z,7.07
2022-12-29T02:25:23.916Z,7.45
2022-12-29T02:28:19.993Z,8.23
2022-12-29T02:31:25.238Z,7.63
2022-12-29T02:34:30.315Z,8.23
2022-12-29T02:37:09.369Z,7.35
2022-12-29T02:39:48.290Z,5.90
2022-12-29T02:42:22.241Z,7.13
2022-12-29T02:44:58.553Z,6.97
2022-12-29T02:47:38.234Z,7.78
2022-12-29T02:50:09.967Z,6.60
2022-12-29T02:52:45.030Z,7.22
2022-12-29T02:55:12.855Z,6.93
2022-12-29T02:57:39.558Z,7.03
2022-12-29T03:00:08.818Z,7.05
2022-12-29T03:02:58.767Z,7.20
2022-12-29T03:05:54.398Z,6.35
2022-12-29T03:08:45.694Z,6.55
2022-12-29T03:11:32.507Z,7.80
2022-12-29T03:14:47.895Z,6.30
2022-12-29T03:17:43.954Z,6.53
2022-12-29T03:20:18.711Z,6.35
2022-12-29T03:22:49.288Z,5.05
2022-12-29T03:25:29.463Z,6.47
2022-12-29T03:28:05.184Z,7.30
2022-12-29T03:30:33.880Z,8.75
2022-12-29T03:33:03.609Z,7.70
2022-12-29T03:35:33.154Z,7.57
2022-12-29T03:38:07.938Z,7.03
2022-12-29T03:40:35.518Z,7.57
2022-12-29T03:43:03.339Z,7.88
2022-12-29T03:45:30.039Z,6.90
2022-12-29T03:47:56.766Z,7.45
2022-12-29T03:50:23.366Z,7.05
2022-12-29T03:52:49.998Z,6.15
2022-12-29T03:55:16.688Z,7.78
2022-12-29T03:57:45.226Z,6.18
2022-12-29T04:00:12.528Z,7.97
2022-12-29T04:02:39.489Z,7.65
2022-12-29T04:05:06.890Z,8.05
2022-12-29T04:07:34.230Z,7.05
2022-12-29T04:10:00.883Z,7.53
2022-12-29T04:12:27.679Z,7.68
2022-12-29T04:14:54.366Z,8.00
2022-12-29T04:17:21.021Z,7.07
2022-12-29T04:19:47.716Z,7.30
2022-12-29T04:22:14.414Z,7.30
2022-12-29T04:24:41.111Z,7.75
2022-12-29T04:27:07.820Z,7.80
2022-12-29T04:29:34.534Z,8.13
2022-12-29T04:32:01.210Z,7.68
2022-12-29T04:34:27.859Z,8.45
2022-12-29T04:36:54.810Z,6.90
2022-12-29T04:39:21.575Z,8.02
2022-12-29T04:41:48.219Z,8.75
2022-12-29T04:44:15.438Z,8.80
2022-12-29T04:46:42.149Z,8.63
2022-12-29T04:49:09.893Z,8.05
2022-12-29T04:51:36.709Z,7.63
2022-12-29T04:54:03.485Z,8.77
2022-12-29T04:56:30.112Z,7.28
2022-12-29T04:58:56.768Z,7.13
2022-12-29T05:01:23.553Z,8.43
2022-12-29T05:03:52.970Z,8.05
2022-12-29T05:06:19.891Z,8.80
2022-12-29T05:08:46.508Z,8.02
2022-12-29T05:11:13.219Z,8.65
2022-12-29T05:13:39.847Z,8.73
2022-12-29T05:16:06.839Z,7.13
2022-12-29T05:18:33.491Z,8.60
2022-12-29T05:21:00.235Z,8.48
2022-12-29T05:23:26.881Z,7.65
2022-12-29T05:25:53.525Z,8.75
2022-12-29T05:28:20.200Z,8.55
2022-12-29T05:30:50.244Z,8.70
2022-12-29T05:33:17.746Z,8.10
2022-12-29T05:35:45.501Z,10.82
2022-12-29T05:38:12.224Z,7.50
2022-12-29T05:40:38.905Z,9.73
2022-12-29T05:43:05.515Z,8.55
2022-12-29T05:45:32.151Z,8.75
2022-12-29T05:47:58.831Z,8.10
2022-12-29T05:50:25.664Z,8.50
2022-12-29T05:52:52.498Z,9.27
2022-12-29T05:55:19.199Z,8.40
2022-12-29T05:57:45.944Z,9.48
2022-12-29T06:00:13.036Z,9.07
2022-12-29T06:02:39.816Z,9.65
2022-12-29T06:05:06.755Z,9.73
2022-12-29T06:07:33.476Z,8.45
2022-12-29T06:10:00.209Z,9.55
2022-12-29T06:12:26.841Z,9.38
2022-12-29T06:14:53.819Z,9.38
2022-12-29T06:17:23.312Z,10.25
2022-12-29T06:19:50.070Z,10.68
2022-12-29T06:22:16.739Z,8.60
2022-12-29T06:24:43.455Z,9.40
2022-12-29T06:27:10.137Z,9.05
2022-12-29T06:29:38.200Z,9.27
2022-12-29T06:32:05.022Z,9.05
2022-12-29T06:34:31.769Z,8.55
2022-12-29T06:36:58.598Z,9.70
2022-12-29T06:39:25.347Z,9.30
2022-12-29T06:41:55.369Z,8.07
2022-12-29T06:44:22.735Z,9.32
2022-12-29T06:46:49.555Z,9.23
2022-12-29T06:49:16.300Z,9.05
2022-12-29T06:51:43.908Z,9.90
2022-12-29T06:54:10.665Z,9.02
2022-12-29T06:56:37.312Z,10.60
2022-12-29T06:59:04.366Z,8.18
2022-12-29T07:01:31.094Z,9.48
2022-12-29T07:03:58.619Z,9.68
2022-12-29T07:06:25.273Z,9.57
2022-12-29T07:08:51.942Z,10.82
2022-12-29T07:11:18.560Z,10.98
2022-12-29T07:13:45.232Z,10.75
2022-12-29T07:16:12.017Z,12.00
2022-12-29T07:18:38.949Z,9.30
2022-12-29T07:21:05.727Z,11.50
2022-12-29T07:23:32.469Z,11.30
2022-12-29T07:26:03.967Z,11.23
2022-12-29T07:28:31.007Z,9.73
2022-12-29T07:30:57.573Z,10.70
2022-12-29T07:33:24.287Z,13.05
2022-12-29T07:35:51.228Z,10.73
2022-12-29T07:38:17.939Z,22.02
2022-12-29T07:40:44.615Z,22.52
2022-12-29T07:43:11.219Z,14.25
2022-12-29T07:45:37.890Z,14.98
2022-12-29T07:48:08.596Z,37.70
2022-12-29T07:50:35.945Z,20.35
2022-12-29T07:53:03.111Z,15.75
2022-12-29T07:55:30.321Z,13.95
2022-12-29T07:57:57.575Z,16.38
2022-12-29T08:00:24.256Z,17.25
2022-12-29T08:02:52.951Z,16.98
2022-12-29T08:05:19.947Z,19.83
2022-12-29T08:07:47.555Z,18.10
2022-12-29T08:10:14.878Z,14.50
2022-12-29T08:12:41.975Z,14.27
2022-12-29T08:15:10.066Z,12.60
2022-12-29T08:17:36.750Z,10.15
2022-12-29T08:20:04.033Z,11.25
2022-12-29T08:22:30.633Z,10.32
2022-12-29T08:24:57.267Z,11.15
2022-12-29T08:27:23.971Z,10.45
2022-12-29T08:29:50.880Z,9.30
2022-12-29T08:32:17.723Z,9.15
2022-12-29T08:34:44.614Z,10.15
2022-12-29T08:37:11.229Z,10.32
2022-12-29T08:39:37.937Z,10.68
2022-12-29T08:42:04.679Z,10.02
2022-12-29T08:44:31.318Z,10.05
2022-12-29T08:46:57.957Z,11.93
2022-12-29T08:49:24.596Z,11.95
2022-12-29T08:51:51.555Z,11.85
2022-12-29T08:54:18.272Z,14.70
2022-12-29T08:56:44.924Z,12.48
2022-12-29T08:59:11.679Z,12.68
2022-12-29T09:01:41.632Z,10.57
2022-12-29T09:04:17.602Z,11.63
2022-12-29T09:06:46.067Z,11.20
2022-12-29T09:09:13.206Z,11.65
2022-12-29T09:11:39.897Z,11.73
2022-12-29T09:14:06.523Z,12.23
2022-12-29T09:16:33.977Z,11.77
2022-12-29T09:19:00.859Z,11.00
2022-12-29T09:21:30.585Z,10.68
2022-12-29T09:23:57.346Z,10.25
2022-12-29T09:26:23.942Z,11.05
2022-12-29T09:28:50.636Z,12.05
2022-12-29T09:31:17.331Z,11.93
2022-12-29T09:33:44.019Z,10.90
2022-12-29T09:36:10.688Z,12.13
2022-12-29T09:38:37.455Z,10.93
2022-12-29T09:41:29.486Z,12.15
2022-12-29T09:44:37.823Z,12.23
2022-12-29T09:47:04.990Z,11.18
2022-12-29T09:49:42.137Z,10.18
2022-12-29T09:52:15.811Z,11.63
2022-12-29T09:55:18.047Z,9.85
2022-12-29T09:57:54.974Z,9.73
2022-12-29T10:00:43.310Z,10.55
2022-12-29T10:03:18.251Z,11.93
2022-12-29T10:06:07.483Z,10.82
2022-12-29T10:08:36.361Z,11.35
2022-12-29T10:11:15.011Z,8.57
2022-12-29T10:14:16.019Z,10.18
2022-12-29T10:17:01.738Z,10.85
2022-12-29T10:20:01.061Z,10.57
2022-12-29T10:22:53.739Z,11.98
2022-12-29T10:25:26.101Z,12.07
2022-12-29T10:27:57.425Z,9.63
2022-12-29T10:30:24.747Z,12.18
2022-12-29T10:33:01.225Z,10.70
2022-12-29T10:35:34.052Z,10.95
2022-12-29T10:38:21.687Z,10.65
2022-12-29T10:41:12.574Z,11.82
2022-12-29T10:43:49.069Z,10.40
2022-12-29T10:46:20.164Z,10.32
2022-12-29T10:48:47.918Z,11.70
2022-12-29T10:51:29.532Z,12.65
2022-12-29T10:54:01.581Z,13.05
2022-12-29T10:56:41.589Z,12.57
2022-12-29T10:59:19.488Z,12.82
2022-12-29T11:02:20.359Z,11.80
2022-12-29T11:05:03.541Z,12.48
2022-12-29T11:07:31.370Z,14.07
2022-12-29T11:10:35.209Z,12.55
2022-12-29T11:13:16.444Z,13.82
2022-12-29T11:15:50.486Z,12.82
2022-12-29T11:18:39.519Z,11.25
2022-12-29T11:21:43.305Z,11.65
2022-12-29T11:24:37.462Z,12.88
2022-12-29T11:27:17.749Z,12.27
2022-12-29T11:29:45.799Z,10.98
2022-12-29T11:32:28.990Z,11.95
2022-12-29T11:34:58.526Z,10.95
2022-12-29T11:37:40.243Z,11.65
2022-12-29T11:40:17.220Z,11.75
2022-12-29T11:42:53.805Z,12.80
2022-12-29T11:45:29.068Z,12.75
2022-12-29T11:48:01.733Z,12.15
2022-12-29T11:50:32.427Z,11.85
2022-12-29T11:53:04.914Z,11.38
2022-12-29T11:55:31.878Z,11.23
2022-12-29T11:58:02.358Z,10.75
2022-12-29T12:00:30.199Z,11.23
2022-12-29T12:02:57.906Z,11.23
2022-12-29T12:05:31.640Z,12.27
2022-12-29T12:08:21.008Z,10.63
2022-12-29T12:10:54.223Z,10.43
2022-12-29T12:13:26.938Z,10.93
2022-12-29T12:16:01.606Z,10.20
2022-12-29T12:18:48.765Z,10.77
2022-12-29T12:21:21.461Z,12.43
2022-12-29T12:24:01.773Z,12.35
2022-12-29T12:26:33.675Z,13.07
2022-12-29T12:29:06.937Z,12.63
2022-12-29T12:31:36.571Z,12.30
2022-12-29T12:34:06.677Z,13.82
2022-12-29T12:36:57.203Z,12.05
2022-12-29T12:39:35.721Z,10.98
2022-12-29T12:42:08.603Z,12.23
2022-12-29T12:44:55.311Z,12.20
2022-12-29T12:47:59.507Z,11.70
2022-12-29T12:50:28.925Z,12.27
2022-12-29T12:52:58.451Z,11.88
2022-12-29T12:56:12.519Z,12.98
2022-12-29T12:58:54.061Z,13.77
2022-12-29T13:01:44.631Z,15.32
2022-12-29T13:04:48.957Z,15.38
2022-12-29T13:07:51.016Z,16.15
2022-12-29T13:10:32.611Z,15.80
2022-12-29T13:13:02.246Z,16.58
2022-12-29T13:15:52.569Z,16.05
2022-12-29T13:18:43.540Z,14.05
2022-12-29T13:21:28.891Z,12.82
2022-12-29T13:24:08.448Z,13.52
2022-12-29T13:27:07.847Z,13.45
2022-12-29T13:29:39.851Z,13.20
2022-12-29T13:32:24.956Z,14.18
2022-12-29T13:35:16.625Z,12.88
2022-12-29T13:38:08.781Z,12.27
2022-12-29T13:40:40.250Z,12.15
2022-12-29T13:43:07.339Z,12.82
2022-12-29T13:45:35.946Z,10.95
2022-12-29T13:48:17.731Z,12.38
2022-12-29T13:50:54.644Z,11.65
2022-12-29T13:53:37.892Z,12.60
2022-12-29T13:56:21.661Z,13.45
2022-12-29T13:58:55.593Z,12.98
2022-12-29T14:01:32.915Z,12.93
2022-12-29T14:04:01.747Z,12.40
2022-12-29T14:06:41.475Z,11.13
2022-12-29T14:09:47.358Z,12.25
2022-12-29T14:12:29.622Z,10.55
2022-12-29T14:15:15.081Z,11.80
2022-12-29T14:17:42.103Z,12.05
2022-12-29T14:20:27.089Z,11.00
2022-12-29T14:23:12.179Z,11.68
2022-12-29T14:25:58.357Z,9.65
2022-12-29T14:28:41.823Z,13.13
2022-12-29T14:31:17.774Z,11.23
2022-12-29T14:34:12.630Z,15.13
2022-12-29T14:36:45.110Z,12.80
2022-12-29T14:39:44.129Z,14.88
2022-12-29T14:42:10.787Z,19.10
2022-12-29T14:44:50.677Z,17.88
2022-12-29T14:47:21.934Z,16.25
2022-12-29T14:49:48.870Z,15.60
2022-12-29T14:52:26.919Z,13.10
2022-12-29T14:55:16.868Z,12.73
2022-12-29T14:57:52.579Z,13.50
2022-12-29T15:00:23.526Z,13.50
2022-12-29T15:02:57.751Z,15.43
2022-12-29T15:05:45.122Z,14.13
2022-12-29T15:08:18.410Z,13.48
2022-12-29T15:10:49.699Z,12.25
2022-12-29T15:13:19.709Z,13.38
2022-12-29T15:15:46.422Z,14.02
2022-12-29T15:18:25.098Z,12.43
2022-12-29T15:20:54.029Z,12.77
2022-12-29T15:23:20.774Z,14.40
2022-12-29T15:26:00.651Z,13.57
2022-12-29T15:28:28.997Z,14.07
2022-12-29T15:30:58.138Z,13.45
2022-12-29T15:33:28.546Z,15.95
2022-12-29T15:35:56.848Z,13.50
2022-12-29T15:38:34.600Z,14.52
2022-12-29T15:41:07.493Z,12.07
2022-12-29T15:43:41.949Z,14.95
2022-12-29T15:46:12.533Z,16.33
2022-12-29T15:48:40.176Z,13.35
2022-12-29T15:51:36.813Z,14.40
2022-12-29T15:54:03.692Z,14.52
2022-12-29T15:56:31.437Z,14.55
2022-12-29T15:58:58.749Z,14.70
2022-12-29T16:01:34.644Z,14.43
2022-12-29T16:04:04.638Z,15.65
2022-12-29T16:06:39.599Z,14.80
2022-12-29T16:09:20.082Z,14.55
2022-12-29T16:11:51.677Z,13.00
2022-12-29T16:14:25.687Z,12.77
2022-12-29T16:16:52.579Z,13.43
2022-12-29T16:19:23.825Z,13.40
2022-12-29T16:22:08.098Z,13.48
2022-12-29T16:24:34.823Z,14.52
2022-12-29T16:27:20.464Z,13.25
2022-12-29T16:29:48.370Z,14.05
2022-12-29T16:32:32.402Z,16.05
2022-12-29T16:35:12.935Z,14.13
2022-12-29T16:37:40.383Z,16.52
2022-12-29T16:40:19.118Z,17.75
2022-12-29T16:42:52.213Z,16.90
2022-12-29T16:45:22.542Z,17.42
2022-12-29T16:48:07.173Z,17.48
2022-12-29T16:50:38.773Z,17.25
2022-12-29T16:53:06.058Z,16.65
2022-12-29T16:55:35.778Z,17.65
2022-12-29T16:58:02.485Z,15.73
2022-12-29T17:00:34.394Z,40.67
2022-12-29T17:03:01.945Z,18.67
2022-12-29T17:05:30.015Z,19.30
2022-12-29T17:08:03.469Z,15.90
2022-12-29T17:10:53.288Z,16.75
2022-12-29T17:13:19.892Z,15.50
2022-12-29T17:15:46.541Z,16.23
2022-12-29T17:18:14.071Z,15.77
2022-12-29T17:20:40.978Z,17.52
2022-12-29T17:23:17.493Z,17.40
2022-12-29T17:25:49.404Z,16.70
2022-12-29T17:28:24.760Z,17.30
2022-12-29T17:33:19.715Z,16.23
2022-12-29T17:35:50.464Z,17.55
2022-12-29T17:38:23.953Z,16.20
2022-12-29T17:40:51.033Z,17.08
2022-12-29T17:43:17.967Z,18.38
2022-12-29T17:45:47.738Z,16.95
2022-12-29T17:48:16.226Z,17.30
2022-12-29T17:50:43.375Z,17.60
2022-12-29T17:53:15.251Z,16.38
2022-12-29T17:55:42.410Z,16.40
2022-12-29T17:58:22.082Z,17.98
2022-12-29T18:00:50.750Z,17.05
2022-12-29T18:03:20.135Z,17.65
2022-12-29T18:05:47.232Z,18.02
2022-12-29T18:08:13.911Z,16.35
2022-12-29T18:10:41.577Z,16.65
2022-12-29T18:13:21.942Z,16.55
2022-12-29T18:15:48.761Z,16.35
2022-12-29T18:18:20.922Z,15.80
2022-12-29T18:20:48.857Z,17.35
2022-12-29T18:23:23.071Z,16.92
2022-12-29T18:26:25.700Z,18.02
2022-12-29T18:28:55.430Z,16.70
2022-12-29T18:31:23.750Z,15.68
2022-12-29T18:33:51.764Z,16.15
2022-12-29T18:36:19.282Z,16.30
2022-12-29T18:38:46.172Z,19.10
2022-12-29T18:41:22.638Z,16.35
2022-12-29T18:43:49.778Z,19.35
2022-12-29T18:46:22.340Z,14.82
2022-12-29T18:48:49.616Z,15.52
2022-12-29T18:51:18.314Z,15.68
2022-12-29T18:53:45.804Z,17.25
2022-12-29T18:56:13.071Z,17.98
2022-12-29T18:58:40.210Z,16.67
2022-12-29T19:01:07.545Z,15.85
2022-12-29T19:03:34.331Z,14.82
2022-12-29T19:06:01.088Z,15.98
2022-12-29T19:08:27.925Z,15.45
2022-12-29T19:10:54.659Z,14.70
2022-12-29T19:13:29.424Z,15.90
2022-12-29T19:15:57.442Z,11.48
2022-12-29T19:18:44.029Z,14.93
2022-12-29T19:21:11.861Z,15.82
2022-12-29T19:23:38.748Z,15.38
2022-12-29T19:26:05.801Z,14.27
2022-12-29T19:28:34.677Z,16.10
2022-12-29T19:31:02.920Z,15.80
2022-12-29T19:33:29.756Z,17.80
2022-12-29T19:36:01.791Z,14.82
2022-12-29T19:38:28.809Z,16.30
2022-12-29T19:40:55.491Z,14.07
2022-12-29T19:43:22.224Z,14.07
2022-12-29T19:45:48.886Z,14.80
2022-12-29T19:48:17.919Z,16.55
2022-12-29T19:50:45.357Z,15.25
2022-12-29T19:53:12.643Z,14.60
2022-12-29T19:55:43.853Z,14.38
2022-12-29T19:58:10.770Z,16.75
2022-12-29T20:00:40.230Z,13.82
2022-12-29T20:03:07.116Z,14.90
2022-12-29T20:05:34.013Z,15.48
2022-12-29T20:08:00.656Z,14.55
2022-12-29T20:10:27.369Z,16.88
2022-12-29T20:12:53.990Z,15.63
2022-12-29T20:15:21.823Z,15.85
2022-12-29T20:20:35.522Z,15.30
2022-12-29T20:23:02.135Z,17.45
2022-12-29T20:25:47.046Z,16.92
2022-12-29T20:28:14.997Z,16.38
2022-12-29T20:30:41.697Z,16.17
2022-12-29T20:33:08.981Z,15.98
2022-12-29T20:35:36.318Z,16.83
2022-12-29T20:38:03.276Z,16.95
2022-12-29T20:40:29.868Z,16.27
2022-12-29T20:42:56.765Z,17.00
2022-12-29T20:45:23.372Z,16.83
2022-12-29T20:47:50.237Z,16.13
2022-12-29T20:50:17.034Z,16.13
2022-12-29T20:52:44.170Z,16.83
2022-12-29T20:55:10.882Z,16.25
2022-12-29T20:58:05.581Z,15.13
2022-12-29T21:00:24.436Z,18.23
2022-12-29T21:02:53.055Z,15.05
2022-12-29T21:05:24.332Z,15.75
2022-12-29T21:07:52.513Z,16.75
2022-12-29T21:10:19.313Z,16.35
2022-12-29T21:12:46.114Z,17.35
2022-12-29T21:15:15.115Z,13.85
2022-12-29T21:17:45.201Z,14.57
2022-12-29T21:20:32.227Z,16.48
2022-12-29T21:23:00.939Z,15.73
2022-12-29T21:25:37.251Z,16.90
2022-12-29T21:28:08.830Z,14.43
2022-12-29T21:30:36.101Z,15.38
2022-12-29T21:33:03.036Z,14.73
2022-12-29T21:35:30.531Z,14.68
2022-12-29T21:37:57.366Z,14.00
2022-12-29T21:40:24.046Z,13.52
2022-12-29T21:42:51.240Z,13.52
2022-12-29T21:45:27.813Z,12.68
2022-12-29T21:48:18.113Z,12.80
2022-12-29T21:51:04.663Z,14.30
2022-12-29T21:53:39.804Z,13.95
2022-12-29T21:56:09.818Z,14.10
2022-12-29T21:58:57.084Z,13.77
2022-12-29T22:01:43.231Z,12.88
2022-12-29T22:04:31.534Z,14.05
2022-12-29T22:07:16.744Z,13.15
2022-12-29T22:10:02.137Z,12.27
2022-12-29T22:12:49.072Z,12.32
2022-12-29T22:15:16.037Z,14.32
2022-12-29T22:17:50.357Z,14.55
2022-12-29T22:20:19.996Z,12.95
2022-12-29T22:22:47.306Z,13.77
2022-12-29T22:25:14.451Z,14.00
2022-12-29T22:27:41.080Z,14.77
2022-12-29T22:30:08.331Z,13.23
2022-12-29T22:32:35.425Z,13.13
2022-12-29T22:35:07.488Z,12.93
2022-12-29T22:37:35.163Z,12.55
2022-12-29T22:40:01.858Z,15.57
2022-12-29T22:42:28.521Z,13.57
2022-12-29T22:44:55.115Z,14.52
2022-12-29T22:47:21.884Z,14.43
2022-12-29T22:49:48.510Z,14.18
2022-12-29T22:52:15.179Z,12.02
2022-12-29T22:54:41.847Z,12.23
2022-12-29T22:57:08.555Z,12.90
2022-12-29T22:59:35.136Z,13.10
2022-12-29T23:02:02.317Z,11.57
2022-12-29T23:05:02.401Z,13.88
2022-12-29T23:07:15.662Z,13.02
2022-12-29T23:09:42.371Z,12.40
2022-12-29T23:12:09.088Z,12.43
2022-12-29T23:14:35.780Z,13.40
2022-12-29T23:17:02.458Z,14.05
2022-12-29T23:19:29.134Z,13.63
2022-12-29T23:21:55.836Z,15.30
2022-12-29T23:24:22.578Z,13.57
2022-12-29T23:26:49.227Z,14.25
2022-12-29T23:29:18.238Z,13.60
2022-12-29T23:31:45.780Z,13.93
2022-12-29T23:34:13.930Z,12.25
2022-12-29T23:36:43.822Z,12.90
2022-12-29T23:39:10.921Z,13.73
2022-12-29T23:41:37.565Z,14.48
2022-12-29T23:44:04.516Z,13.57
2022-12-29T23:46:31.511Z,14.23
2022-12-29T23:48:58.378Z,12.68
2022-12-29T23:51:25.090Z,13.65
2022-12-29T23:53:51.689Z,12.70
2022-12-29T23:56:21.720Z,14.23
2022-12-29T23:58:49.599Z,15.60
